createdAt,value
2023-04-20T00:01:13.555Z,100.00
2023-04-20T00:03:43.960Z,100.00
2023-04-20T00:06:15.641Z,100.00
2023-04-20T00:08:46.143Z,100.00
2023-04-20T00:11:16.408Z,100.00
2023-04-20T00:13:46.689Z,100.00
2023-04-20T00:16:19.538Z,100.00
2023-04-20T00:18:49.897Z,100.00
2023-04-20T00:21:22.044Z,100.00
2023-04-20T00:23:52.336Z,100.00
2023-04-20T00:26:22.723Z,100.00
2023-04-20T00:28:56.239Z,100.00
2023-04-20T00:31:34.213Z,100.00
2023-04-20T00:34:04.517Z,100.00
2023-04-20T00:36:34.811Z,100.00
2023-04-20T00:39:05.884Z,100.00
2023-04-20T00:41:36.241Z,100.00
2023-04-20T00:44:06.896Z,100.00
2023-04-20T00:46:40.143Z,100.00
2023-04-20T00:49:10.754Z,100.00
2023-04-20T00:51:41.255Z,100.00
2023-04-20T00:54:11.694Z,100.00
2023-04-20T00:56:42.058Z,100.00
2023-04-20T00:59:12.935Z,100.00
2023-04-20T01:01:45.805Z,100.00
2023-04-20T01:04:18.641Z,100.00
2023-04-20T01:06:49.541Z,100.00
2023-04-20T01:09:20.020Z,100.00
2023-04-20T01:11:50.632Z,100.00
2023-04-20T01:14:20.859Z,100.00
2023-04-20T01:16:53.758Z,100.00
2023-04-20T01:19:24.478Z,100.00
2023-04-20T01:21:54.887Z,100.00
2023-04-20T01:24:27.871Z,100.00
2023-04-20T01:26:57.809Z,100.00
2023-04-20T01:29:27.762Z,100.00
2023-04-20T01:31:57.901Z,100.00
2023-04-20T01:34:28.220Z,100.00
2023-04-20T01:36:58.201Z,100.00
2023-04-20T01:39:31.370Z,100.00
2023-04-20T01:42:01.811Z,100.00
2023-04-20T01:44:31.817Z,100.00
2023-04-20T01:47:02.778Z,100.00
2023-04-20T01:49:32.964Z,100.00
2023-04-20T01:52:02.865Z,100.00
2023-04-20T01:54:35.418Z,100.00
2023-04-20T01:57:05.320Z,100.00
2023-04-20T01:59:35.167Z,100.00
2023-04-20T02:02:05.440Z,100.00
2023-04-20T02:04:36.092Z,100.00
2023-04-20T02:07:05.961Z,100.00
2023-04-20T02:09:38.424Z,100.00
2023-04-20T02:12:08.928Z,100.00
2023-04-20T02:14:38.862Z,100.00
2023-04-20T02:17:14.024Z,100.00
2023-04-20T02:19:44.085Z,100.00
2023-04-20T02:22:14.033Z,100.00
2023-04-20T02:24:46.830Z,100.00
2023-04-20T02:27:17.727Z,100.00
2023-04-20T02:29:47.699Z,100.00
2023-04-20T02:32:17.577Z,100.00
2023-04-20T02:34:47.438Z,100.00
2023-04-20T02:37:17.377Z,100.00
2023-04-20T02:39:49.845Z,100.00
2023-04-20T02:42:21.108Z,100.00
2023-04-20T02:44:52.900Z,100.00
2023-04-20T02:47:22.919Z,100.00
2023-04-20T02:49:54.618Z,100.00
2023-04-20T02:52:24.552Z,100.00
2023-04-20T02:54:57.495Z,100.00
2023-04-20T02:57:28.045Z,100.00
2023-04-20T02:59:59.300Z,100.00
2023-04-20T03:02:40.389Z,100.00
2023-04-20T03:05:12.448Z,100.00
2023-04-20T03:07:46.520Z,100.00
2023-04-20T03:10:19.303Z,100.00
2023-04-20T03:12:58.583Z,100.00
2023-04-20T03:15:46.917Z,100.00
2023-04-20T03:18:32.060Z,100.00
2023-04-20T03:21:02.247Z,100.00
2023-04-20T03:23:34.598Z,100.00
2023-04-20T03:26:08.685Z,100.00
2023-04-20T03:28:46.242Z,100.00
2023-04-20T03:31:21.593Z,100.00
2023-04-20T03:33:52.419Z,100.00
2023-04-20T03:36:22.794Z,100.00
2023-04-20T03:38:52.819Z,100.00
2023-04-20T03:41:25.943Z,100.00
2023-04-20T03:43:56.114Z,100.00
2023-04-20T03:46:26.139Z,100.00
2023-04-20T03:48:56.159Z,100.00
2023-04-20T03:51:26.801Z,100.00
2023-04-20T03:53:56.660Z,100.00
2023-04-20T03:56:29.632Z,100.00
2023-04-20T03:58:59.960Z,100.00
2023-04-20T04:01:32.005Z,100.00
2023-04-20T04:04:02.138Z,100.00
2023-04-20T04:06:34.917Z,100.00
2023-04-20T04:09:04.891Z,100.00
2023-04-20T04:11:37.363Z,100.00
2023-04-20T04:14:07.886Z,100.00
2023-04-20T04:16:39.902Z,100.00
2023-04-20T04:19:09.872Z,100.00
2023-04-20T04:21:41.528Z,100.00
2023-04-20T04:24:12.212Z,100.00
2023-04-20T04:26:52.329Z,100.00
2023-04-20T04:29:22.311Z,100.00
2023-04-20T04:31:52.321Z,100.00
2023-04-20T04:34:24.172Z,100.00
2023-04-20T04:36:55.904Z,100.00
2023-04-20T04:39:34.246Z,100.00
2023-04-20T04:42:15.229Z,100.00
2023-04-20T04:44:46.417Z,100.00
2023-04-20T04:47:22.402Z,100.00
2023-04-20T04:49:52.419Z,100.00
2023-04-20T04:52:22.320Z,100.00
2023-04-20T04:54:52.582Z,100.00
2023-04-20T04:57:26.218Z,100.00
2023-04-20T04:59:56.509Z,100.00
2023-04-20T05:02:27.409Z,100.00
2023-04-20T05:04:57.832Z,100.00
2023-04-20T05:07:27.815Z,100.00
2023-04-20T05:09:57.642Z,100.00
2023-04-20T05:12:30.413Z,100.00
2023-04-20T05:15:00.570Z,100.00
2023-04-20T05:17:30.575Z,100.00
2023-04-20T05:20:00.984Z,100.00
2023-04-20T05:22:30.892Z,100.00
2023-04-20T05:25:00.729Z,100.00
2023-04-20T05:27:33.569Z,100.00
2023-04-20T05:30:18.817Z,100.00
2023-04-20T05:32:52.356Z,100.00
2023-04-20T05:35:22.873Z,100.00
2023-04-20T05:37:52.770Z,100.00
2023-04-20T05:40:22.704Z,100.00
2023-04-20T05:42:55.295Z,100.00
2023-04-20T05:45:25.299Z,100.00
2023-04-20T05:47:56.257Z,100.00
2023-04-20T05:50:26.765Z,100.00
2023-04-20T05:52:56.953Z,100.00
2023-04-20T05:55:27.254Z,100.00
2023-04-20T05:57:59.748Z,100.00
2023-04-20T06:00:29.712Z,100.00
2023-04-20T06:02:59.839Z,100.00
2023-04-20T06:05:29.806Z,99.18
2023-04-20T06:07:59.712Z,87.09
2023-04-20T06:10:32.498Z,85.99
2023-04-20T06:13:05.043Z,75.87
2023-04-20T06:15:34.948Z,76.42
2023-04-20T06:18:05.207Z,64.97
2023-04-20T06:20:35.062Z,60.63
2023-04-20T06:23:04.909Z,57.21
2023-04-20T06:25:34.857Z,57.69
2023-04-20T06:28:07.815Z,53.51
2023-04-20T06:30:38.005Z,51.50
2023-04-20T06:33:09.094Z,50.92
2023-04-20T06:35:40.205Z,52.67
2023-04-20T06:38:10.030Z,52.21
2023-04-20T06:40:40.059Z,51.29
2023-04-20T06:43:12.588Z,47.94
2023-04-20T06:45:42.950Z,46.46
2023-04-20T06:48:30.225Z,45.85
2023-04-20T06:51:01.836Z,44.81
2023-04-20T06:53:32.407Z,46.49
2023-04-20T06:56:02.488Z,47.22
2023-04-20T06:58:34.949Z,48.60
2023-04-20T07:01:05.080Z,51.06
2023-04-20T07:03:35.305Z,53.67
2023-04-20T07:06:05.419Z,58.61
2023-04-20T07:08:35.369Z,63.06
2023-04-20T07:11:05.409Z,62.94
2023-04-20T07:13:38.033Z,63.40
2023-04-20T07:16:08.743Z,63.42
2023-04-20T07:18:38.692Z,63.67
2023-04-20T07:21:08.872Z,61.06
2023-04-20T07:23:38.760Z,59.25
2023-04-20T07:26:08.878Z,60.43
2023-04-20T07:28:41.436Z,59.34
2023-04-20T07:31:11.346Z,61.04
2023-04-20T07:33:41.337Z,66.41
2023-04-20T07:36:12.001Z,69.55
2023-04-20T07:38:42.066Z,74.89
2023-04-20T07:41:12.833Z,70.75
2023-04-20T07:43:45.461Z,73.37
2023-04-20T07:46:22.946Z,74.80
2023-04-20T07:48:52.963Z,75.41
2023-04-20T07:51:22.869Z,74.47
2023-04-20T07:53:52.744Z,77.42
2023-04-20T07:56:22.626Z,81.53
2023-04-20T07:58:55.252Z,78.15
2023-04-20T08:01:27.058Z,79.24
2023-04-20T08:03:57.858Z,81.48
2023-04-20T08:06:28.213Z,82.75
2023-04-20T08:08:58.099Z,84.25
2023-04-20T08:11:28.121Z,85.44
2023-04-20T08:14:00.536Z,89.44
2023-04-20T08:16:30.598Z,90.37
2023-04-20T08:19:01.939Z,99.41
2023-04-20T08:21:31.875Z,100.00
2023-04-20T08:24:01.752Z,100.00
2023-04-20T08:26:31.804Z,100.00
2023-04-20T08:29:05.526Z,100.00
2023-04-20T08:31:35.699Z,100.00
2023-04-20T08:34:05.617Z,100.00
2023-04-20T08:36:36.329Z,100.00
2023-04-20T08:39:11.719Z,100.00
2023-04-20T08:41:42.002Z,100.00
2023-04-20T08:44:14.594Z,100.00
2023-04-20T08:46:49.422Z,100.00
2023-04-20T08:49:21.026Z,100.00
2023-04-20T08:51:51.749Z,100.00
2023-04-20T08:54:22.625Z,100.00
2023-04-20T08:56:54.124Z,100.00
2023-04-20T08:59:27.565Z,100.00
2023-04-20T09:01:57.465Z,100.00
2023-04-20T09:04:29.309Z,100.00
2023-04-20T09:06:59.478Z,100.00
2023-04-20T09:09:29.320Z,100.00
2023-04-20T09:12:07.557Z,100.00
2023-04-20T09:14:48.719Z,100.00
2023-04-20T09:17:19.690Z,100.00
2023-04-20T09:19:55.801Z,100.00
2023-04-20T09:22:32.828Z,100.00
2023-04-20T09:25:03.456Z,100.00
2023-04-20T09:27:33.420Z,100.00
2023-04-20T09:30:07.092Z,100.00
2023-04-20T09:32:37.021Z,100.00
2023-04-20T09:35:07.936Z,100.00
2023-04-20T09:37:37.826Z,100.00
2023-04-20T09:40:09.908Z,100.00
2023-04-20T09:42:42.407Z,100.00
2023-04-20T09:45:16.869Z,100.00
2023-04-20T09:47:47.125Z,100.00
2023-04-20T09:50:26.713Z,100.00
2023-04-20T09:53:00.277Z,100.00
2023-04-20T09:55:30.492Z,100.00
2023-04-20T09:58:00.860Z,100.00
2023-04-20T10:00:33.576Z,100.00
2023-04-20T10:03:03.806Z,100.00
2023-04-20T10:05:40.022Z,100.00
2023-04-20T10:08:10.231Z,100.00
2023-04-20T10:10:51.527Z,100.00
2023-04-20T10:13:23.359Z,100.00
2023-04-20T10:15:55.814Z,100.00
2023-04-20T10:18:27.674Z,100.00
2023-04-20T10:21:09.761Z,100.00
2023-04-20T10:23:50.517Z,100.00
2023-04-20T10:26:20.522Z,100.00
2023-04-20T10:28:50.557Z,100.00
2023-04-20T10:31:23.050Z,100.00
2023-04-20T10:33:57.263Z,100.00
2023-04-20T10:36:30.153Z,100.00
2023-04-20T10:39:01.617Z,100.00
2023-04-20T10:41:31.689Z,100.00
2023-04-20T10:44:10.578Z,100.00
2023-04-20T10:46:43.211Z,100.00
2023-04-20T10:49:13.136Z,100.00
2023-04-20T10:51:49.755Z,100.00
2023-04-20T10:54:20.549Z,100.00
2023-04-20T10:56:52.526Z,100.00
2023-04-20T10:59:25.031Z,100.00
2023-04-20T11:01:59.845Z,100.00
2023-04-20T11:04:34.653Z,100.00
2023-04-20T11:07:09.015Z,100.00
2023-04-20T11:09:40.282Z,100.00
2023-04-20T11:12:14.844Z,100.00
2023-04-20T11:14:53.900Z,100.00
2023-04-20T11:17:33.706Z,100.00
2023-04-20T11:20:10.653Z,100.00
2023-04-20T11:22:41.263Z,100.00
2023-04-20T11:25:12.713Z,100.00
2023-04-20T11:27:43.308Z,100.00
2023-04-20T11:30:14.318Z,100.00
2023-04-20T11:32:56.506Z,95.49
2023-04-20T11:35:26.765Z,99.38
2023-04-20T11:37:57.764Z,100.00
2023-04-20T11:40:28.531Z,100.00
2023-04-20T11:43:00.256Z,100.00
2023-04-20T11:45:31.281Z,100.00
2023-04-20T11:48:04.747Z,99.00
2023-04-20T11:50:35.085Z,100.00
2023-04-20T11:53:05.979Z,100.00
2023-04-20T11:55:36.748Z,100.00
2023-04-20T11:58:07.220Z,100.00
2023-04-20T12:00:37.750Z,100.00
2023-04-20T12:03:11.008Z,100.00
2023-04-20T12:05:43.400Z,100.00
2023-04-20T12:08:13.771Z,100.00
2023-04-20T12:10:44.015Z,100.00
2023-04-20T12:13:15.221Z,100.00
2023-04-20T12:15:45.656Z,100.00
2023-04-20T12:18:19.464Z,100.00
2023-04-20T12:20:50.379Z,100.00
2023-04-20T12:23:20.628Z,100.00
2023-04-20T12:25:50.954Z,100.00
2023-04-20T12:28:21.332Z,100.00
2023-04-20T12:30:51.582Z,100.00
2023-04-20T12:33:24.561Z,100.00
2023-04-20T12:35:54.805Z,100.00
2023-04-20T12:38:25.068Z,100.00
2023-04-20T12:40:55.618Z,100.00
2023-04-20T12:43:25.879Z,100.00
2023-04-20T12:45:56.075Z,100.00
2023-04-20T12:48:28.881Z,100.00
2023-04-20T12:50:59.166Z,100.00
2023-04-20T12:53:29.461Z,100.00
2023-04-20T12:56:01.361Z,100.00
2023-04-20T12:58:31.924Z,100.00
2023-04-20T13:01:02.425Z,100.00
2023-04-20T13:03:35.884Z,100.00
2023-04-20T13:06:06.553Z,100.00
2023-04-20T13:08:37.395Z,100.00
2023-04-20T13:11:07.783Z,100.00
2023-04-20T13:13:37.976Z,100.00
2023-04-20T13:16:08.646Z,100.00
2023-04-20T13:18:41.531Z,100.00
2023-04-20T13:21:11.965Z,100.00
2023-04-20T13:23:42.508Z,100.00
2023-04-20T13:26:12.957Z,100.00
2023-04-20T13:28:43.199Z,100.00
2023-04-20T13:31:13.531Z,100.00
2023-04-20T13:33:46.414Z,100.00
2023-04-20T13:36:16.612Z,100.00
2023-04-20T13:38:47.417Z,100.00
2023-04-20T13:41:17.732Z,100.00
2023-04-20T13:43:47.950Z,100.00
2023-04-20T13:46:18.347Z,100.00
2023-04-20T13:48:51.165Z,100.00
2023-04-20T13:51:22.286Z,100.00
2023-04-20T13:53:52.481Z,100.00
2023-04-20T13:56:22.692Z,100.00
2023-04-20T13:58:52.985Z,100.00
2023-04-20T14:01:23.994Z,100.00
2023-04-20T14:03:57.758Z,100.00
2023-04-20T14:06:29.040Z,100.00
2023-04-20T14:08:59.239Z,100.00
2023-04-20T14:11:29.574Z,100.00
2023-04-20T14:13:59.827Z,100.00
2023-04-20T14:16:30.151Z,100.00
2023-04-20T14:19:03.100Z,100.00
2023-04-20T14:21:34.519Z,100.00
2023-04-20T14:24:04.813Z,100.00
2023-04-20T14:26:35.063Z,100.00
2023-04-20T14:29:05.513Z,100.00
2023-04-20T14:31:35.959Z,100.00
2023-04-20T14:34:09.540Z,100.00
2023-04-20T14:36:39.801Z,100.00
2023-04-20T14:39:10.033Z,100.00
2023-04-20T14:41:40.313Z,100.00
2023-04-20T14:44:10.631Z,100.00
2023-04-20T14:46:42.545Z,100.00
2023-04-20T14:49:15.800Z,100.00
2023-04-20T14:51:46.050Z,100.00
2023-04-20T14:54:16.714Z,100.00
2023-04-20T14:56:47.323Z,100.00
2023-04-20T14:59:17.569Z,100.00
2023-04-20T15:02:01.208Z,100.00
2023-04-20T15:04:35.762Z,100.00
2023-04-20T15:07:06.210Z,100.00
2023-04-20T15:09:36.958Z,100.00
2023-04-20T15:12:07.199Z,100.00
2023-04-20T15:14:37.488Z,100.00
2023-04-20T15:17:07.770Z,100.00
2023-04-20T15:19:45.988Z,100.00
2023-04-20T15:22:16.412Z,100.00
2023-04-20T15:24:46.722Z,100.00
2023-04-20T15:27:17.276Z,100.00
2023-04-20T15:29:47.489Z,100.00
2023-04-20T15:32:17.927Z,100.00
2023-04-20T15:34:50.727Z,100.00
2023-04-20T15:37:20.953Z,100.00
2023-04-20T15:39:52.066Z,100.00
2023-04-20T15:42:22.302Z,100.00
2023-04-20T15:44:52.558Z,100.00
2023-04-20T15:47:23.029Z,100.00
2023-04-20T15:50:01.550Z,100.00
2023-04-20T15:52:32.555Z,100.00
2023-04-20T15:55:03.462Z,100.00
2023-04-20T15:57:33.714Z,100.00
2023-04-20T16:00:04.457Z,100.00
2023-04-20T16:02:41.516Z,100.00
2023-04-20T16:05:14.764Z,100.00
2023-04-20T16:07:45.524Z,100.00
2023-04-20T16:10:16.538Z,100.00
2023-04-20T16:12:46.819Z,100.00
2023-04-20T16:15:17.148Z,100.00
2023-04-20T16:17:47.471Z,100.00
2023-04-20T16:20:20.329Z,100.00
2023-04-20T16:22:50.558Z,100.00
2023-04-20T16:25:23.297Z,100.00
2023-04-20T16:27:54.642Z,100.00
2023-04-20T16:30:25.123Z,100.00
2023-04-20T16:32:55.455Z,100.00
2023-04-20T16:35:28.438Z,100.00
2023-04-20T16:37:58.864Z,100.00
2023-04-20T16:40:29.117Z,100.00
2023-04-20T16:43:01.184Z,100.00
2023-04-20T16:45:31.457Z,100.00
2023-04-20T16:48:01.721Z,100.00
2023-04-20T16:50:35.551Z,100.00
2023-04-20T16:53:06.086Z,100.00
2023-04-20T16:55:36.318Z,100.00
2023-04-20T16:58:06.647Z,100.00
2023-04-20T17:00:37.159Z,100.00
2023-04-20T17:03:10.836Z,100.00
2023-04-20T17:05:44.946Z,100.00
2023-04-20T17:08:15.290Z,100.00
2023-04-20T17:10:45.591Z,100.00
2023-04-20T17:13:15.980Z,100.00
2023-04-20T17:15:46.478Z,100.00
2023-04-20T17:18:16.740Z,100.00
2023-04-20T17:20:49.657Z,100.00
2023-04-20T17:23:19.951Z,100.00
2023-04-20T17:25:51.425Z,100.00
2023-04-20T17:28:21.650Z,100.00
2023-04-20T17:30:51.958Z,100.00
2023-04-20T17:33:22.177Z,100.00
2023-04-20T17:35:55.347Z,100.00
2023-04-20T17:38:25.745Z,100.00
2023-04-20T17:40:56.031Z,100.00
2023-04-20T17:43:26.255Z,100.00
2023-04-20T17:45:58.710Z,100.00
2023-04-20T17:48:28.976Z,100.00
2023-04-20T17:51:01.870Z,100.00
2023-04-20T17:53:32.095Z,100.00
2023-04-20T17:56:03.144Z,100.00
2023-04-20T17:58:33.378Z,100.00
2023-04-20T18:01:03.747Z,100.00
2023-04-20T18:03:34.184Z,100.00
2023-04-20T18:06:07.249Z,100.00
2023-04-20T18:08:37.531Z,100.00
2023-04-20T18:11:08.493Z,100.00
2023-04-20T18:13:38.774Z,100.00
2023-04-20T18:16:09.238Z,100.00
2023-04-20T18:18:39.786Z,100.00
2023-04-20T18:21:14.371Z,100.00
2023-04-20T18:23:44.656Z,100.00
2023-04-20T18:26:17.678Z,100.00
2023-04-20T18:28:48.055Z,100.00
2023-04-20T18:31:18.372Z,100.00
2023-04-20T18:33:48.761Z,100.00
2023-04-20T18:36:21.746Z,100.00
2023-04-20T18:38:52.200Z,100.00
2023-04-20T18:41:23.398Z,100.00
2023-04-20T18:43:55.763Z,100.00
2023-04-20T18:46:26.080Z,100.00
2023-04-20T18:48:56.415Z,100.00
2023-04-20T18:51:29.375Z,100.00
2023-04-20T18:53:59.638Z,100.00
2023-04-20T18:56:29.907Z,100.00
2023-04-20T18:59:00.575Z,100.00
2023-04-20T19:01:31.010Z,100.00
2023-04-20T19:04:01.827Z,100.00
2023-04-20T19:06:34.768Z,100.00
2023-04-20T19:09:07.307Z,100.00
2023-04-20T19:11:38.397Z,100.00
2023-04-20T19:14:08.640Z,100.00
2023-04-20T19:16:39.334Z,100.00
2023-04-20T19:19:10.042Z,100.00
2023-04-20T19:21:42.845Z,100.00
2023-04-20T19:24:13.080Z,100.00
2023-04-20T19:26:43.491Z,100.00
2023-04-20T19:29:14.002Z,100.00
2023-04-20T19:31:44.318Z,100.00
2023-04-20T19:34:15.337Z,100.00
2023-04-20T19:36:48.147Z,100.00
2023-04-20T19:39:18.374Z,100.00
2023-04-20T19:41:49.807Z,100.00
2023-04-20T19:44:20.127Z,100.00
2023-04-20T19:46:50.450Z,100.00
2023-04-20T19:49:21.080Z,100.00
2023-04-20T19:51:54.039Z,100.00
2023-04-20T19:54:24.364Z,100.00
2023-04-20T19:56:54.661Z,100.00
2023-04-20T19:59:25.007Z,100.00
2023-04-20T20:01:55.461Z,100.00
2023-04-20T20:04:25.885Z,100.00
2023-04-20T20:06:59.310Z,100.00
2023-04-20T20:09:29.657Z,100.00
2023-04-20T20:12:01.254Z,100.00
2023-04-20T20:14:31.587Z,100.00
2023-04-20T20:17:01.885Z,100.00
2023-04-20T20:19:32.228Z,100.00
2023-04-20T20:22:05.104Z,100.00
2023-04-20T20:24:35.354Z,100.00
2023-04-20T20:27:05.597Z,100.00
2023-04-20T20:29:35.962Z,100.00
2023-04-20T20:32:06.459Z,100.00
2023-04-20T20:34:36.769Z,100.00
2023-04-20T20:37:10.564Z,100.00
2023-04-20T20:39:41.234Z,100.00
2023-04-20T20:42:12.683Z,100.00
2023-04-20T20:44:43.076Z,100.00
2023-04-20T20:47:13.434Z,100.00
2023-04-20T20:49:43.993Z,100.00
2023-04-20T20:52:16.780Z,100.00
2023-04-20T20:54:47.170Z,100.00
2023-04-20T20:57:17.641Z,100.00
2023-04-20T20:59:47.871Z,100.00
2023-04-20T21:02:18.343Z,100.00
2023-04-20T21:04:48.659Z,100.00
2023-04-20T21:07:21.667Z,100.00
2023-04-20T21:09:51.914Z,100.00
2023-04-20T21:12:22.141Z,100.00
2023-04-20T21:14:52.832Z,100.00
2023-04-20T21:17:23.115Z,100.00
2023-04-20T21:19:53.397Z,100.00
2023-04-20T21:22:26.403Z,100.00
2023-04-20T21:24:56.703Z,100.00
2023-04-20T21:27:27.975Z,100.00
2023-04-20T21:29:58.302Z,100.00
2023-04-20T21:32:28.565Z,100.00
2023-04-20T21:34:58.839Z,100.00
2023-04-20T21:37:31.719Z,100.00
2023-04-20T21:40:02.163Z,100.00
2023-04-20T21:42:32.425Z,100.00
2023-04-20T21:45:02.697Z,100.00
2023-04-20T21:47:33.046Z,100.00
2023-04-20T21:50:03.493Z,100.00
2023-04-20T21:52:36.562Z,100.00
2023-04-20T21:55:07.220Z,100.00
2023-04-20T21:57:37.441Z,100.00
2023-04-20T22:00:08.971Z,100.00
2023-04-20T22:02:44.939Z,100.00
2023-04-20T22:05:15.499Z,100.00
2023-04-20T22:07:48.325Z,100.00
2023-04-20T22:10:18.683Z,100.00
2023-04-20T22:12:48.985Z,100.00
2023-04-20T22:15:22.290Z,100.00
2023-04-20T22:17:52.583Z,100.00
2023-04-20T22:20:22.942Z,100.00
2023-04-20T22:22:56.300Z,100.00
2023-04-20T22:25:27.373Z,100.00
2023-04-20T22:27:57.634Z,100.00
2023-04-20T22:30:27.961Z,100.00
2023-04-20T22:32:58.199Z,100.00
2023-04-20T22:35:28.438Z,100.00
2023-04-20T22:38:01.219Z,100.00
2023-04-20T22:40:31.425Z,100.00
2023-04-20T22:43:01.732Z,100.00
2023-04-20T22:45:31.999Z,100.00
2023-04-20T22:48:02.343Z,100.00
2023-04-20T22:50:32.883Z,100.00
2023-04-20T22:53:05.845Z,100.00
2023-04-20T22:55:36.077Z,100.00
2023-04-20T22:58:06.354Z,100.00
2023-04-20T23:00:36.782Z,100.00
2023-04-20T23:03:07.444Z,100.00
2023-04-20T23:05:39.193Z,100.00
2023-04-20T23:08:12.073Z,100.00
2023-04-20T23:10:42.407Z,100.00
2023-04-20T23:13:17.127Z,100.00
2023-04-20T23:15:47.370Z,100.00
2023-04-20T23:18:17.588Z,100.00
2023-04-20T23:20:47.951Z,100.00
2023-04-20T23:23:20.818Z,100.00
2023-04-20T23:25:51.025Z,100.00
2023-04-20T23:28:21.340Z,100.00
2023-04-20T23:30:51.664Z,100.00
2023-04-20T23:33:21.881Z,100.00
2023-04-20T23:35:52.101Z,100.00
2023-04-20T23:38:24.888Z,100.00
2023-04-20T23:40:55.319Z,100.00
2023-04-20T23:43:25.875Z,100.00
2023-04-20T23:45:56.134Z,100.00
2023-04-20T23:48:26.461Z,100.00
2023-04-20T23:50:56.702Z,100.00
2023-04-20T23:53:29.798Z,100.00
2023-04-20T23:56:00.121Z,100.00
2023-04-20T23:58:31.034Z,100.00
